createdAt,value
2023-07-28T00:00:58.658Z,17.60
2023-07-28T00:04:40.668Z,17.60
2023-07-28T00:08:22.673Z,17.50
2023-07-28T00:12:05.067Z,17.50
2023-07-28T00:15:47.124Z,17.50
2023-07-28T00:19:29.132Z,17.40
2023-07-28T00:23:11.311Z,17.40
2023-07-28T00:26:53.297Z,17.40
2023-07-28T00:30:35.339Z,17.30
2023-07-28T00:34:17.358Z,17.30
2023-07-28T00:37:59.574Z,17.20
2023-07-28T00:41:41.542Z,17.20
2023-07-28T00:45:23.942Z,17.10
2023-07-28T00:49:06.019Z,17.10
2023-07-28T00:52:48.052Z,17.00
2023-07-28T00:56:30.105Z,17.00
2023-07-28T01:00:12.617Z,16.90
2023-07-28T01:03:54.756Z,16.90
2023-07-28T01:08:23.903Z,16.80
2023-07-28T01:12:10.549Z,16.80
2023-07-28T01:15:52.676Z,16.70
2023-07-28T01:19:34.889Z,16.70
2023-07-28T01:23:22.012Z,16.60
2023-07-28T01:27:04.549Z,16.60
2023-07-28T01:30:47.075Z,16.50
2023-07-28T01:34:29.077Z,16.40
2023-07-28T01:38:11.132Z,16.40
2023-07-28T01:41:53.115Z,16.40
2023-07-28T01:45:35.304Z,16.40
2023-07-28T01:49:17.326Z,16.40
2023-07-28T01:52:59.316Z,16.40
2023-07-28T01:56:41.326Z,16.40
2023-07-28T02:00:23.620Z,16.40
2023-07-28T02:04:06.388Z,16.40
2023-07-28T02:07:48.500Z,16.30
2023-07-28T02:11:30.663Z,16.30
2023-07-28T02:15:14.039Z,16.30
2023-07-28T02:18:56.009Z,16.30
2023-07-28T02:22:38.592Z,16.30
2023-07-28T02:26:20.609Z,16.30
2023-07-28T02:30:02.642Z,16.40
2023-07-28T02:33:44.645Z,16.50
2023-07-28T02:37:27.028Z,16.50
2023-07-28T02:41:09.059Z,16.50
2023-07-28T02:44:51.172Z,16.60
2023-07-28T02:48:33.153Z,16.60
2023-07-28T02:52:15.216Z,16.70
2023-07-28T02:55:58.096Z,16.70
2023-07-28T02:59:40.128Z,16.60
2023-07-28T03:03:22.153Z,16.70
2023-07-28T03:07:04.299Z,16.60
2023-07-28T03:10:46.282Z,16.70
2023-07-28T03:14:29.753Z,16.70
2023-07-28T03:18:11.731Z,16.70
2023-07-28T03:21:53.758Z,16.70
2023-07-28T03:25:35.712Z,16.70
2023-07-28T03:29:17.792Z,16.60
2023-07-28T03:32:59.843Z,16.60
2023-07-28T03:36:41.912Z,16.60
2023-07-28T03:40:24.036Z,16.50
2023-07-28T03:44:06.121Z,16.60
2023-07-28T03:47:48.158Z,16.50
2023-07-28T03:51:30.274Z,16.50
2023-07-28T03:55:12.339Z,16.40
2023-07-28T03:58:55.387Z,16.40
2023-07-28T04:02:37.435Z,16.40
2023-07-28T04:06:19.471Z,16.40
2023-07-28T04:10:01.444Z,16.40
2023-07-28T04:13:43.432Z,16.30
2023-07-28T04:17:25.767Z,16.30
2023-07-28T04:21:08.114Z,16.30
2023-07-28T04:24:50.147Z,16.30
2023-07-28T04:28:32.129Z,16.30
2023-07-28T04:32:14.224Z,16.30
2023-07-28T04:35:56.242Z,16.30
2023-07-28T04:39:38.786Z,16.30
2023-07-28T04:43:20.886Z,16.30
2023-07-28T04:47:02.844Z,16.30
2023-07-28T04:50:46.518Z,16.40
2023-07-28T04:54:28.518Z,16.40
2023-07-28T04:58:10.525Z,16.40
2023-07-28T05:01:52.515Z,16.40
2023-07-28T05:05:34.644Z,16.50
2023-07-28T05:09:16.626Z,16.50
2023-07-28T05:12:58.645Z,16.50
2023-07-28T05:16:40.859Z,16.50
2023-07-28T05:20:23.272Z,16.60
2023-07-28T05:24:05.460Z,16.60
2023-07-28T05:27:47.524Z,16.60
2023-07-28T05:31:29.649Z,16.70
2023-07-28T05:35:11.715Z,16.70
2023-07-28T05:38:54.826Z,16.80
2023-07-28T05:42:37.006Z,16.80
2023-07-28T05:46:19.972Z,16.80
2023-07-28T05:50:05.122Z,16.90
2023-07-28T05:53:47.430Z,16.90
2023-07-28T05:57:29.514Z,17.00
2023-07-28T06:01:11.565Z,17.00
2023-07-28T06:04:54.552Z,17.10
2023-07-28T06:08:37.076Z,17.10
2023-07-28T06:12:19.119Z,17.20
2023-07-28T06:16:01.219Z,17.30
2023-07-28T06:19:43.874Z,17.40
2023-07-28T06:23:25.882Z,17.40
2023-07-28T06:27:10.164Z,17.50
2023-07-28T06:30:59.419Z,17.50
2023-07-28T06:34:41.500Z,17.50
2023-07-28T06:38:25.151Z,17.60
2023-07-28T06:42:07.497Z,17.60
2023-07-28T06:45:52.424Z,17.70
2023-07-28T06:49:34.527Z,17.70
2023-07-28T06:53:16.612Z,17.70
2023-07-28T06:56:58.645Z,17.80
2023-07-28T07:00:40.613Z,17.90
2023-07-28T07:04:22.664Z,18.00
2023-07-28T07:08:04.968Z,18.10
2023-07-28T07:11:47.949Z,18.20
2023-07-28T07:15:30.006Z,18.30
2023-07-28T07:19:12.092Z,18.40
2023-07-28T07:22:56.107Z,18.50
2023-07-28T07:26:39.816Z,18.80
2023-07-28T07:30:21.762Z,18.90
2023-07-28T07:34:05.391Z,18.90
2023-07-28T07:37:47.339Z,18.90
2023-07-28T07:41:30.734Z,18.90
2023-07-28T07:45:13.474Z,18.90
2023-07-28T07:48:55.565Z,19.10
2023-07-28T07:52:41.096Z,19.30
2023-07-28T07:56:24.106Z,19.50
2023-07-28T08:00:08.433Z,19.90
2023-07-28T08:03:50.515Z,20.20
2023-07-28T08:07:32.491Z,20.50
2023-07-28T08:11:14.617Z,20.70
2023-07-28T08:14:57.225Z,21.00
2023-07-28T08:18:39.364Z,21.30
2023-07-28T08:22:21.470Z,21.70
2023-07-28T08:26:03.929Z,21.90
2023-07-28T08:29:45.944Z,21.90
2023-07-28T08:33:28.716Z,22.00
2023-07-28T08:37:11.275Z,22.20
2023-07-28T08:40:53.321Z,22.30
2023-07-28T08:44:36.289Z,22.10
2023-07-28T08:48:18.429Z,22.10
2023-07-28T08:52:01.794Z,22.00
2023-07-28T08:55:43.812Z,22.00
2023-07-28T08:59:28.124Z,22.40
2023-07-28T09:03:10.770Z,22.80
2023-07-28T09:06:52.989Z,23.00
2023-07-28T09:10:45.619Z,23.30
2023-07-28T09:14:27.851Z,24.00
2023-07-28T09:18:11.589Z,24.00
2023-07-28T09:22:01.644Z,23.80
2023-07-28T09:25:44.121Z,23.70
2023-07-28T09:29:28.980Z,23.50
2023-07-28T09:33:11.063Z,23.20
2023-07-28T09:36:58.442Z,22.90
2023-07-28T09:40:41.797Z,22.60
2023-07-28T09:44:23.820Z,22.30
2023-07-28T09:48:10.957Z,22.00
2023-07-28T09:51:55.585Z,21.90
2023-07-28T09:55:42.198Z,22.00
2023-07-28T09:59:38.855Z,22.80
2023-07-28T10:03:21.217Z,23.70
2023-07-28T10:07:05.247Z,24.20
2023-07-28T10:10:48.199Z,24.20
2023-07-28T10:14:32.179Z,23.90
2023-07-28T10:18:14.325Z,23.50
2023-07-28T10:22:03.214Z,23.30
2023-07-28T10:25:46.473Z,23.30
2023-07-28T10:29:39.618Z,23.20
2023-07-28T10:33:37.308Z,23.10
2023-07-28T10:37:24.847Z,23.20
2023-07-28T10:41:08.417Z,23.80
2023-07-28T10:44:50.492Z,24.20
2023-07-28T10:48:32.557Z,24.30
2023-07-28T10:52:17.044Z,24.00
2023-07-28T10:56:00.296Z,23.70
2023-07-28T10:59:42.337Z,23.40
2023-07-28T11:03:24.768Z,23.20
2023-07-28T11:07:08.342Z,23.30
2023-07-28T11:10:50.628Z,23.50
2023-07-28T11:14:32.616Z,24.10
2023-07-28T11:18:17.069Z,25.10
2023-07-28T11:22:01.914Z,25.50
2023-07-28T11:25:45.495Z,25.20
2023-07-28T11:29:29.114Z,24.70
2023-07-28T11:33:15.019Z,24.40
2023-07-28T11:36:57.163Z,24.50
2023-07-28T11:40:39.695Z,24.70
2023-07-28T11:44:22.103Z,25.00
2023-07-28T11:48:10.226Z,24.70
2023-07-28T11:51:54.943Z,24.30
2023-07-28T11:55:38.206Z,23.80
2023-07-28T11:59:21.658Z,23.40
2023-07-28T12:03:06.552Z,23.10
2023-07-28T12:07:13.264Z,22.90
2023-07-28T12:22:17.070Z,21.90
2023-07-28T12:25:59.837Z,21.90
2023-07-28T12:29:50.774Z,22.40
2023-07-28T12:37:57.621Z,24.10
2023-07-28T12:41:22.302Z,24.40
2023-07-28T12:48:52.606Z,24.20
2023-07-28T12:53:11.865Z,23.90
2023-07-28T12:56:38.372Z,23.70
2023-07-28T13:04:05.490Z,23.60
2023-07-28T13:15:17.522Z,23.00
2023-07-28T13:19:00.975Z,23.00
2023-07-28T13:22:43.069Z,22.70
2023-07-28T13:26:26.446Z,22.60
2023-07-28T13:30:09.195Z,22.60
2023-07-28T13:33:51.328Z,22.70
2023-07-28T13:37:33.353Z,22.80
2023-07-28T13:41:15.352Z,22.90
2023-07-28T13:44:58.439Z,23.20
2023-07-28T13:48:52.456Z,23.40
2023-07-28T13:52:35.432Z,23.30
2023-07-28T14:00:02.902Z,23.20
2023-07-28T14:03:46.184Z,23.30
2023-07-28T14:07:28.348Z,23.40
2023-07-28T14:11:10.514Z,23.40
2023-07-28T14:14:52.543Z,23.50
2023-07-28T14:18:34.615Z,23.60
2023-07-28T14:22:16.659Z,23.50
2023-07-28T14:25:58.803Z,23.50
2023-07-28T14:29:40.755Z,23.40
2023-07-28T14:33:22.857Z,23.60
2023-07-28T14:37:09.555Z,24.20
2023-07-28T14:40:53.273Z,24.70
2023-07-28T14:44:35.324Z,24.90
2023-07-28T14:48:17.402Z,25.00
2023-07-28T14:51:59.417Z,24.80
2023-07-28T14:55:41.621Z,24.40
2023-07-28T14:59:23.646Z,24.00
2023-07-28T15:03:05.724Z,23.80
2023-07-28T15:06:47.859Z,23.60
2023-07-28T15:10:29.841Z,23.40
2023-07-28T15:14:13.169Z,23.30
2023-07-28T15:17:55.310Z,23.30
2023-07-28T15:21:38.012Z,23.30
2023-07-28T15:25:20.365Z,23.20
2023-07-28T15:29:02.619Z,23.10
2023-07-28T15:32:44.811Z,23.20
2023-07-28T15:36:26.937Z,23.20
2023-07-28T15:40:09.692Z,23.10
2023-07-28T15:43:51.709Z,23.00
2023-07-28T15:47:35.100Z,22.80
2023-07-28T15:51:17.094Z,22.70
2023-07-28T15:54:59.519Z,22.60
2023-07-28T15:58:41.527Z,22.50
2023-07-28T16:02:23.585Z,22.60
2023-07-28T16:06:05.594Z,22.70
2023-07-28T16:09:47.734Z,22.90
2023-07-28T16:13:30.070Z,23.00
2023-07-28T16:17:12.099Z,22.90
2023-07-28T16:20:54.238Z,22.80
2023-07-28T16:24:36.284Z,22.50
2023-07-28T16:28:18.491Z,22.40
2023-07-28T16:32:02.432Z,22.20
2023-07-28T16:35:44.452Z,22.00
2023-07-28T16:39:26.509Z,22.00
2023-07-28T16:43:08.701Z,22.00
2023-07-28T16:46:50.688Z,21.90
2023-07-28T16:50:32.653Z,21.70
2023-07-28T16:54:14.808Z,21.60
2023-07-28T16:57:56.861Z,21.40
2023-07-28T17:01:39.261Z,21.20
2023-07-28T17:05:21.562Z,21.20
2023-07-28T17:09:03.769Z,21.10
2023-07-28T17:12:47.256Z,21.00
2023-07-28T17:16:29.559Z,20.90
2023-07-28T17:20:12.069Z,20.80
2023-07-28T17:23:54.100Z,20.60
2023-07-28T17:27:36.091Z,20.50
2023-07-28T17:31:18.117Z,20.40
2023-07-28T17:35:00.134Z,20.40
2023-07-28T17:38:42.286Z,20.30
2023-07-28T17:42:26.287Z,20.30
2023-07-28T17:46:08.416Z,20.30
2023-07-28T17:49:50.465Z,20.30
2023-07-28T17:53:32.633Z,20.30
2023-07-28T17:57:14.684Z,20.30
2023-07-28T18:00:56.839Z,20.20
2023-07-28T18:04:38.833Z,20.10
2023-07-28T18:08:21.270Z,19.90
2023-07-28T18:12:03.343Z,19.80
2023-07-28T18:15:45.647Z,19.70
2023-07-28T18:19:27.660Z,19.60
2023-07-28T18:23:09.707Z,19.60
2023-07-28T18:26:51.692Z,19.60
2023-07-28T18:30:33.727Z,19.60
2023-07-28T18:34:15.749Z,19.60
2023-07-28T18:37:57.816Z,19.50
2023-07-28T18:41:39.830Z,19.50
2023-07-28T18:45:21.868Z,19.50
2023-07-28T18:49:03.899Z,19.50
2023-07-28T18:52:45.949Z,19.50
2023-07-28T18:56:27.900Z,19.40
2023-07-28T19:00:14.023Z,19.30
2023-07-28T19:03:56.189Z,19.30
2023-07-28T19:07:38.301Z,19.20
2023-07-28T19:11:20.543Z,19.10
2023-07-28T19:15:02.727Z,19.10
2023-07-28T19:18:45.029Z,19.10
2023-07-28T19:22:27.043Z,19.00
2023-07-28T19:26:10.626Z,18.90
2023-07-28T19:29:53.431Z,18.90
2023-07-28T19:33:37.654Z,18.80
2023-07-28T19:37:31.559Z,18.70
2023-07-28T19:41:22.212Z,18.60
2023-07-28T19:45:04.391Z,18.60
2023-07-28T19:48:46.419Z,18.50
2023-07-28T19:52:28.425Z,18.50
2023-07-28T19:56:10.422Z,18.50
2023-07-28T19:59:52.438Z,18.50
2023-07-28T20:03:34.644Z,18.40
2023-07-28T20:07:16.725Z,18.30
2023-07-28T20:10:58.681Z,18.30
2023-07-28T20:14:40.680Z,18.20
2023-07-28T20:18:22.815Z,18.20
2023-07-28T20:22:04.832Z,18.20
2023-07-28T20:25:47.741Z,18.20
2023-07-28T20:29:30.339Z,18.20
2023-07-28T20:33:12.351Z,18.20
2023-07-28T20:36:54.358Z,18.10
2023-07-28T20:40:36.326Z,18.10
2023-07-28T20:44:21.587Z,18.10
2023-07-28T20:48:03.839Z,18.00
2023-07-28T20:51:45.904Z,18.00
2023-07-28T20:55:29.180Z,18.00
2023-07-28T20:59:11.192Z,18.00
2023-07-28T21:02:53.294Z,17.90
2023-07-28T21:06:37.014Z,17.80
2023-07-28T21:10:19.365Z,17.80
2023-07-28T21:14:01.903Z,17.70
2023-07-28T21:17:44.429Z,17.70
2023-07-28T21:21:26.587Z,17.60
2023-07-28T21:25:08.932Z,17.50
2023-07-28T21:28:53.114Z,17.40
2023-07-28T21:32:38.540Z,17.30
2023-07-28T21:36:20.631Z,17.20
2023-07-28T21:40:03.695Z,17.20
2023-07-28T21:43:45.788Z,17.20
2023-07-28T21:47:27.889Z,17.20
2023-07-28T21:51:09.916Z,17.20
2023-07-28T21:54:52.052Z,17.30
2023-07-28T21:58:34.105Z,17.30
2023-07-28T22:02:17.365Z,17.30
2023-07-28T22:05:59.438Z,17.30
2023-07-28T22:09:41.630Z,17.30
2023-07-28T22:13:23.667Z,17.30
2023-07-28T22:17:05.824Z,17.30
2023-07-28T22:20:48.457Z,17.30
2023-07-28T22:24:30.457Z,17.30
2023-07-28T22:28:14.193Z,17.30
2023-07-28T22:31:56.217Z,17.20
2023-07-28T22:35:38.371Z,17.20
2023-07-28T22:39:20.333Z,17.10
2023-07-28T22:43:02.327Z,17.10
2023-07-28T22:46:44.275Z,17.10
2023-07-28T22:50:26.354Z,17.00
2023-07-28T22:54:08.332Z,17.00
2023-07-28T22:57:50.344Z,17.00
2023-07-28T23:01:32.390Z,17.00
2023-07-28T23:05:14.473Z,16.90
2023-07-28T23:08:56.532Z,16.90
2023-07-28T23:12:40.015Z,16.90
2023-07-28T23:16:22.081Z,16.90
2023-07-28T23:20:04.986Z,16.80
2023-07-28T23:23:46.944Z,16.80
2023-07-28T23:27:29.061Z,16.70
2023-07-28T23:31:15.250Z,16.70
2023-07-28T23:34:57.428Z,16.70
2023-07-28T23:38:40.214Z,16.60
2023-07-28T23:42:22.249Z,16.60
2023-07-28T23:46:04.366Z,16.60
2023-07-28T23:49:46.384Z,16.60
2023-07-28T23:53:29.865Z,16.60
2023-07-28T23:57:12.024Z,16.60
